Deer Trail, CO (80105)

5:29 AM MDT on October 01, 2014 (GMT -0600)
Cottonwood Estates | Change Station
CLOSE
Current Station
Personal Weather Station
Location: Deer Trail, CO
Elevation: 5512 ft
Nearby Weather Stations

Elev 5512 ft 39.54 °N, 104.14 °W | Updated 4 seconds ago

Clear
Clear
42.2 °F
Feels Like 42 °F
N
0.0
Wind Variable Wind from North
Gusts 0.0 mph

Today
High -- | Low -- °F
--% Chance of Precip.
Yesterday
High -- | Low -- °F
Precip. -- in
6:52 AM 6:38 PM
Waxing Crescent, 46% visible
Pressure 29.89 in
Visibility 10.0 miles
Clouds Clear
Windchill 42 °F
Dew Point 37 °F
Humidity 81%
Rainfall 0.00 in
Snow Depth 0 in , 0 in , 0 in
UV 0 out of 12
Pollen 3.40 out of 12
Air Quality Not available.
Flu Activity Not available.
METAR KFTG 011039Z AUTO 15007KT 10SM CLR 08/04 A2989 RMK AO2

More Conditions Fewer Conditions

Pressure 29.89 in
Visibility 10.0 miles
Clouds Clear
Windchill 42 °F
Dew Point 37 °F
Humidity 81%
Rainfall 0.00 in
Snow Depth 0 in , 0 in , 0 in
UV 0 out of 12
Pollen 3.40 out of 12
Air Quality Not available.
Flu Activity Not available.
METAR KFTG 011039Z AUTO 15007KT 10SM CLR 08/04 A2989 RMK AO2

More Conditions Fewer Conditions

10-Day Weather Forecast

Almanac

Astronomy

Oct. 01, 2014 Rise Set
Actual Time 6:52 AM MDT 6:38 PM MDT
Civil Twilight 6:25 AM MDT 7:05 PM MDT
Nautical Twilight 5:54 AM MDT 7:36 PM MDT
Astronomical Twilight 5:22 AM MDT 8:07 PM MDT
Moon 1:54 PM MDT No Moon Set
Length of Visible Light 12h 39m
Length of Day
11h 46m
Tomorrow will be 2m 34s shorter.
Waxing Crescent, 46% of the Moon is Illuminated
Today
Waxing Crescent
Oct 1
First Quarter
Oct 8
Full
Oct 15
Last Quarter
Oct 23
New

Today's Extremes

State Highs State Lows

Community

WunderPhotos

Upload Photos

1,757,913 photos uploaded!

Nearby

Snow Depth

Station Depth Elevation
Middle Creek 0 in 11250 ft
Overland Reservoir 0 in 9880 ft
Upper Rio Grande 0 in 9400 ft
Medano Pass 1 in 9620 ft
Ute Creek 1 in 10650 ft

Earthquake Activity

City Distance Mag. Time & Date
No recent earthquake activity has been reported nearby.
Minimum magnitude displayed is 2.5.

Coastal Water Temperatures

Place Temperature
No Stations Reporting

Nearby Weather Stations